createdAt,value
2019-01-05T00:00:05.828Z,1024.78
2019-01-05T00:01:05.805Z,1024.75
2019-01-05T00:02:05.787Z,1024.74
2019-01-05T00:03:05.756Z,1024.74
2019-01-05T00:04:05.731Z,1024.73
2019-01-05T00:05:05.717Z,1024.70
2019-01-05T00:06:05.690Z,1024.69
2019-01-05T00:07:05.666Z,1024.71
2019-01-05T00:08:05.635Z,1024.67
2019-01-05T00:09:05.616Z,1024.63
2019-01-05T00:10:05.609Z,1024.61
2019-01-05T00:11:05.564Z,1024.60
2019-01-05T00:12:05.546Z,1024.62
2019-01-05T00:13:05.517Z,1024.62
2019-01-05T00:14:05.493Z,1024.60
2019-01-05T00:15:05.469Z,1024.54
2019-01-05T00:16:05.444Z,1024.57
2019-01-05T00:17:05.418Z,1024.54
2019-01-05T00:18:05.394Z,1024.50
2019-01-05T00:19:05.421Z,1024.51
2019-01-05T00:20:05.348Z,1024.53
2019-01-05T00:21:05.321Z,1024.52
2019-01-05T00:22:05.299Z,1024.50
2019-01-05T00:23:05.282Z,1024.52
2019-01-05T00:24:05.253Z,1024.49
2019-01-05T00:25:05.224Z,1024.44
2019-01-05T00:26:05.209Z,1024.43
2019-01-05T00:27:05.176Z,1024.48
2019-01-05T00:28:05.152Z,1024.46
2019-01-05T00:29:05.129Z,1024.42
2019-01-05T00:30:05.102Z,1024.47
2019-01-05T00:31:05.080Z,1024.44
2019-01-05T00:32:05.054Z,1024.41
2019-01-05T00:33:05.030Z,1024.43
2019-01-05T00:34:05.015Z,1024.41
2019-01-05T00:35:04.984Z,1024.40
2019-01-05T00:36:04.959Z,1024.42
2019-01-05T00:37:04.939Z,1024.45
2019-01-05T00:38:04.910Z,1024.39
2019-01-05T00:39:04.886Z,1024.40
2019-01-05T00:40:04.861Z,1024.36
2019-01-05T00:41:04.848Z,1024.36
2019-01-05T00:42:04.812Z,1024.32
2019-01-05T00:43:04.800Z,1024.32
2019-01-05T00:44:04.779Z,1024.36
2019-01-05T00:45:04.750Z,1024.32
2019-01-05T00:46:04.726Z,1024.36
2019-01-05T00:47:04.693Z,1024.33
2019-01-05T00:48:04.678Z,1024.32
2019-01-05T00:49:04.645Z,1024.30
2019-01-05T00:50:04.623Z,1024.30
2019-01-05T00:51:04.622Z,1024.25
2019-01-05T00:52:04.575Z,1024.28
2019-01-05T00:53:04.547Z,1024.27
2019-01-05T00:54:04.525Z,1024.29
2019-01-05T00:55:04.508Z,1024.24
2019-01-05T00:56:04.476Z,1024.22
2019-01-05T00:57:04.458Z,1024.18
2019-01-05T00:58:04.424Z,1024.14
2019-01-05T00:59:04.401Z,1024.20
2019-01-05T01:00:04.378Z,1024.21
2019-01-05T01:01:04.353Z,1024.21
2019-01-05T01:02:04.328Z,1024.17
2019-01-05T01:03:04.304Z,1024.12
2019-01-05T01:04:04.281Z,1024.03
2019-01-05T01:05:04.257Z,1024.07
2019-01-05T01:06:04.242Z,1024.10
2019-01-05T01:07:04.216Z,1024.13
2019-01-05T01:08:04.183Z,1024.06
2019-01-05T01:09:04.158Z,1024.10
2019-01-05T01:10:04.141Z,1024.07
2019-01-05T01:11:04.117Z,1024.14
2019-01-05T01:12:04.094Z,1024.14
2019-01-05T01:13:04.080Z,1024.16
2019-01-05T01:14:04.040Z,1024.12
2019-01-05T01:15:04.012Z,1024.13
2019-01-05T01:16:03.994Z,1024.06
2019-01-05T01:17:03.981Z,1024.08
2019-01-05T01:18:03.950Z,1024.13
2019-01-05T01:19:03.918Z,1024.10
2019-01-05T01:20:03.896Z,1024.09
2019-01-05T01:21:03.868Z,1024.07
2019-01-05T01:22:03.843Z,1024.03
2019-01-05T01:23:03.818Z,1024.04
2019-01-05T01:24:03.794Z,1023.98
2019-01-05T01:25:03.777Z,1023.97
2019-01-05T01:26:03.752Z,1023.94
2019-01-05T01:27:03.722Z,1023.97
2019-01-05T01:28:03.698Z,1023.94
2019-01-05T01:29:03.682Z,1023.93
2019-01-05T01:30:03.648Z,1023.91
2019-01-05T01:31:03.625Z,1023.90
2019-01-05T01:32:03.606Z,1023.87
2019-01-05T01:33:03.577Z,1023.91
2019-01-05T01:34:03.550Z,1023.91
2019-01-05T01:35:03.528Z,1023.80
2019-01-05T01:36:03.501Z,1023.79
2019-01-05T01:37:03.487Z,1023.75
2019-01-05T01:38:03.463Z,1023.78
2019-01-05T01:39:03.432Z,1023.72
2019-01-05T01:40:03.407Z,1023.76
2019-01-05T01:41:03.380Z,1023.74
2019-01-05T01:42:03.357Z,1023.72
2019-01-05T01:43:03.333Z,1023.70
2019-01-05T01:44:03.308Z,1023.71
2019-01-05T01:45:03.300Z,1023.69
2019-01-05T01:46:03.268Z,1023.69
2019-01-05T01:47:03.235Z,1023.69
2019-01-05T01:48:03.211Z,1023.75
2019-01-05T01:49:03.194Z,1023.70
2019-01-05T01:50:03.163Z,1023.72
2019-01-05T01:51:03.143Z,1023.68
2019-01-05T01:52:03.115Z,1023.68
2019-01-05T01:53:03.091Z,1023.71
2019-01-05T01:54:03.063Z,1023.69
2019-01-05T01:55:03.042Z,1023.68
2019-01-05T01:56:03.168Z,1023.62
2019-01-05T01:57:02.996Z,1023.57
2019-01-05T01:58:02.971Z,1023.52
2019-01-05T01:59:02.950Z,1023.53
2019-01-05T02:00:02.920Z,1023.50
2019-01-05T02:01:02.898Z,1023.50
2019-01-05T02:02:02.874Z,1023.48
2019-01-05T02:03:05.837Z,1023.46
2019-01-05T02:04:02.822Z,1023.37
2019-01-05T02:05:02.803Z,1023.37
2019-01-05T02:06:02.785Z,1023.44
2019-01-05T02:07:02.753Z,1023.39
2019-01-05T02:08:02.726Z,1023.38
2019-01-05T02:09:02.703Z,1023.40
2019-01-05T02:10:02.678Z,1023.36
2019-01-05T02:11:02.653Z,1023.39
2019-01-05T02:12:02.630Z,1023.38
2019-01-05T02:13:02.606Z,1023.38
2019-01-05T02:14:02.583Z,1023.47
2019-01-05T02:15:02.558Z,1023.47
2019-01-05T02:16:02.532Z,1023.46
2019-01-05T02:17:02.511Z,1023.46
2019-01-05T02:18:02.487Z,1023.45
2019-01-05T02:19:02.460Z,1023.46
2019-01-05T02:20:02.437Z,1023.45
2019-01-05T02:21:02.520Z,1023.36
2019-01-05T02:22:02.388Z,1023.37
2019-01-05T02:23:02.362Z,1023.33
2019-01-05T02:24:02.341Z,1023.33
2019-01-05T02:25:02.314Z,1023.30
2019-01-05T02:26:02.291Z,1023.26
2019-01-05T02:27:02.267Z,1023.26
2019-01-05T02:28:02.242Z,1023.24
2019-01-05T02:29:02.220Z,1023.26
2019-01-05T02:30:02.196Z,1023.23
2019-01-05T02:31:02.170Z,1023.21
2019-01-05T02:32:02.157Z,1023.19
2019-01-05T02:33:02.123Z,1023.20
2019-01-05T02:34:02.096Z,1023.18
2019-01-05T02:35:02.077Z,1023.17
2019-01-05T02:36:02.065Z,1023.20
2019-01-05T02:37:02.024Z,1023.13
2019-01-05T02:38:02.001Z,1023.08
2019-01-05T02:39:01.979Z,1023.03
2019-01-05T02:40:01.953Z,1023.09
2019-01-05T02:41:01.928Z,1023.12
2019-01-05T02:42:01.902Z,1023.11
2019-01-05T02:43:01.886Z,1023.09
2019-01-05T02:44:01.858Z,1023.03
2019-01-05T02:45:01.839Z,1023.03
2019-01-05T02:46:01.806Z,1022.97
2019-01-05T02:47:01.782Z,1022.98
2019-01-05T02:48:01.764Z,1022.93
2019-01-05T02:49:01.733Z,1023.03
2019-01-05T02:50:01.709Z,1023.01
2019-01-05T02:51:01.683Z,1023.04
2019-01-05T02:52:01.668Z,1023.08
2019-01-05T02:53:01.645Z,1023.02
2019-01-05T02:54:01.711Z,1023.04
2019-01-05T02:55:01.588Z,1023.07
2019-01-05T02:56:01.563Z,1023.04
2019-01-05T02:57:01.545Z,1023.08
2019-01-05T02:58:01.523Z,1023.05
2019-01-05T02:59:01.489Z,1023.04
2019-01-05T03:00:01.475Z,1023.03
2019-01-05T03:01:01.443Z,1022.98
2019-01-05T03:02:01.431Z,1023.03
2019-01-05T03:03:01.393Z,1023.04
2019-01-05T03:04:01.370Z,1023.02
2019-01-05T03:05:01.352Z,1023.02
2019-01-05T03:06:01.330Z,1023.03
2019-01-05T03:07:01.305Z,1022.97
2019-01-05T03:08:01.279Z,1022.97
2019-01-05T03:09:01.250Z,1022.96
2019-01-05T03:10:01.231Z,1022.93
2019-01-05T03:11:01.201Z,1022.91
2019-01-05T03:12:01.182Z,1022.92
2019-01-05T03:13:01.157Z,1022.85
2019-01-05T03:14:01.129Z,1022.82
2019-01-05T03:15:01.107Z,1022.76
2019-01-05T03:16:01.087Z,1022.74
2019-01-05T03:17:01.055Z,1022.72
2019-01-05T03:18:01.038Z,1022.70
2019-01-05T03:19:01.029Z,1022.74
2019-01-05T03:20:00.986Z,1022.71
2019-01-05T03:21:00.970Z,1022.74
2019-01-05T03:22:00.937Z,1022.69
2019-01-05T03:23:00.913Z,1022.67
2019-01-05T03:24:00.888Z,1022.67
2019-01-05T03:25:00.865Z,1022.68
2019-01-05T03:26:00.839Z,1022.69
2019-01-05T03:27:00.820Z,1022.63
2019-01-05T03:28:00.791Z,1022.65
2019-01-05T03:29:00.766Z,1022.64
2019-01-05T03:30:00.763Z,1022.67
2019-01-05T03:31:00.722Z,1022.63
2019-01-05T03:32:00.705Z,1022.59
2019-01-05T03:33:00.688Z,1022.58
2019-01-05T03:34:00.649Z,1022.58
2019-01-05T03:35:00.624Z,1022.54
2019-01-05T03:36:00.598Z,1022.54
2019-01-05T03:37:00.578Z,1022.54
2019-01-05T03:38:00.551Z,1022.51
2019-01-05T03:39:00.534Z,1022.51
2019-01-05T03:40:00.502Z,1022.50
2019-01-05T03:41:00.480Z,1022.46
2019-01-05T03:42:00.456Z,1022.51
2019-01-05T03:43:00.430Z,1022.51
2019-01-05T03:44:00.407Z,1022.45
2019-01-05T03:45:00.383Z,1022.47
2019-01-05T03:46:00.358Z,1022.44
2019-01-05T03:47:00.333Z,1022.36
2019-01-05T03:48:00.309Z,1022.42
2019-01-05T03:49:00.287Z,1022.36
2019-01-05T03:50:00.262Z,1022.34
2019-01-05T03:51:00.237Z,1022.31
2019-01-05T03:52:00.231Z,1022.28
2019-01-05T03:53:00.190Z,1022.30
2019-01-05T03:54:00.167Z,1022.30
2019-01-05T03:55:00.156Z,1022.29
2019-01-05T03:56:00.123Z,1022.28
2019-01-05T03:57:00.116Z,1022.29
2019-01-05T03:58:00.121Z,1022.31
2019-01-05T03:59:00.047Z,1022.28
2019-01-05T04:00:00.028Z,1022.30
2019-01-05T04:00:59.999Z,1022.26
2019-01-05T04:01:59.974Z,1022.24
2019-01-05T04:02:59.962Z,1022.24
2019-01-05T04:03:59.928Z,1022.24
2019-01-05T04:04:59.903Z,1022.23
2019-01-05T04:05:59.884Z,1022.21
2019-01-05T04:06:59.855Z,1022.24
2019-01-05T04:07:59.833Z,1022.21
2019-01-05T04:08:59.808Z,1022.17
2019-01-05T04:09:59.786Z,1022.20
2019-01-05T04:10:59.759Z,1022.12
2019-01-05T04:11:59.741Z,1022.08
2019-01-05T04:12:59.711Z,1022.02
2019-01-05T04:13:59.701Z,1021.96
2019-01-05T04:14:59.673Z,1021.88
2019-01-05T04:15:59.641Z,1021.87
2019-01-05T04:16:59.617Z,1021.86
2019-01-05T04:17:59.597Z,1021.94
2019-01-05T04:18:59.567Z,1021.94
2019-01-05T04:19:59.557Z,1021.97
2019-01-05T04:20:59.521Z,1021.93
2019-01-05T04:21:59.498Z,1021.84
2019-01-05T04:22:59.474Z,1021.83
2019-01-05T04:23:59.456Z,1021.89
2019-01-05T04:24:59.434Z,1021.90
2019-01-05T04:25:59.401Z,1021.88
2019-01-05T04:26:59.393Z,1021.93
2019-01-05T04:27:59.512Z,1021.94
2019-01-05T04:28:59.333Z,1021.99
2019-01-05T04:29:59.310Z,1021.95
2019-01-05T04:30:59.282Z,1021.94
2019-01-05T04:31:59.258Z,1021.90
2019-01-05T04:32:59.237Z,1021.90
2019-01-05T04:33:59.212Z,1021.85
2019-01-05T04:34:59.189Z,1021.82
2019-01-05T04:35:59.163Z,1021.85
2019-01-05T04:36:59.155Z,1021.82
2019-01-05T04:37:59.115Z,1021.84
2019-01-05T04:38:59.091Z,1021.84
2019-01-05T04:39:59.069Z,1021.86
2019-01-05T04:40:59.050Z,1021.80
2019-01-05T04:41:59.083Z,1021.86
2019-01-05T04:42:58.996Z,1021.80
2019-01-05T04:43:58.972Z,1021.75
2019-01-05T04:44:58.951Z,1021.84
2019-01-05T04:45:58.938Z,1021.79
2019-01-05T04:46:58.904Z,1021.81
2019-01-05T04:47:58.881Z,1021.75
2019-01-05T04:48:58.872Z,1021.79
2019-01-05T04:49:58.840Z,1021.71
2019-01-05T04:50:58.812Z,1021.76
2019-01-05T04:51:58.786Z,1021.69
2019-01-05T04:52:58.862Z,1021.76
2019-01-05T04:53:58.737Z,1021.77
2019-01-05T04:54:58.713Z,1021.72
2019-01-05T04:55:58.690Z,1021.70
2019-01-05T04:56:58.689Z,1021.65
2019-01-05T04:57:58.642Z,1021.63
2019-01-05T04:58:58.619Z,1021.57
2019-01-05T04:59:58.594Z,1021.59
2019-01-05T05:00:58.571Z,1021.55
2019-01-05T05:01:58.546Z,1021.60
2019-01-05T05:02:58.523Z,1021.57
2019-01-05T05:03:58.500Z,1021.53
2019-01-05T05:04:58.476Z,1021.52
2019-01-05T05:05:58.453Z,1021.56
2019-01-05T05:06:58.479Z,1021.50
2019-01-05T05:07:58.405Z,1021.52
2019-01-05T05:08:58.382Z,1021.53
2019-01-05T05:09:58.357Z,1021.53
2019-01-05T05:10:58.349Z,1021.51
2019-01-05T05:11:58.325Z,1021.56
2019-01-05T05:12:58.289Z,1021.54
2019-01-05T05:13:58.266Z,1021.55
2019-01-05T05:14:58.240Z,1021.50
2019-01-05T05:15:58.217Z,1021.49
2019-01-05T05:16:58.192Z,1021.54
2019-01-05T05:17:58.173Z,1021.56
2019-01-05T05:18:58.144Z,1021.51
2019-01-05T05:19:58.122Z,1021.50
2019-01-05T05:20:58.097Z,1021.48
2019-01-05T05:21:58.077Z,1021.56
2019-01-05T05:22:58.049Z,1021.47
2019-01-05T05:23:58.029Z,1021.58
2019-01-05T05:24:58.003Z,1021.54
2019-01-05T05:25:57.982Z,1021.58
2019-01-05T05:26:57.955Z,1021.62
2019-01-05T05:27:57.931Z,1021.59
2019-01-05T05:28:57.910Z,1021.59
2019-01-05T05:29:57.884Z,1021.63
2019-01-05T05:30:57.859Z,1021.59
2019-01-05T05:31:57.837Z,1021.62
2019-01-05T05:32:57.813Z,1021.59
2019-01-05T05:33:57.787Z,1021.60
2019-01-05T05:34:57.765Z,1021.58
2019-01-05T05:35:57.743Z,1021.58
2019-01-05T05:36:57.717Z,1021.54
2019-01-05T05:37:57.700Z,1021.54
2019-01-05T05:38:57.672Z,1021.49
2019-01-05T05:39:57.650Z,1021.52
2019-01-05T05:40:57.631Z,1021.49
2019-01-05T05:41:57.598Z,1021.43
2019-01-05T05:42:57.582Z,1021.37
2019-01-05T05:43:57.552Z,1021.45
2019-01-05T05:44:57.528Z,1021.42
2019-01-05T05:45:57.505Z,1021.44
2019-01-05T05:46:57.483Z,1021.36
2019-01-05T05:47:57.460Z,1021.33
2019-01-05T05:48:57.434Z,1021.36
2019-01-05T05:49:57.410Z,1021.27
2019-01-05T05:50:57.387Z,1021.27
2019-01-05T05:51:57.369Z,1021.23
2019-01-05T05:52:57.338Z,1021.27
2019-01-05T05:53:57.317Z,1021.27
2019-01-05T05:54:57.305Z,1021.32
2019-01-05T05:55:57.269Z,1021.30
2019-01-05T05:56:57.243Z,1021.35
2019-01-05T05:57:57.218Z,1021.32
2019-01-05T05:58:57.195Z,1021.37
2019-01-05T05:59:57.178Z,1021.39
2019-01-05T06:00:57.146Z,1021.41
2019-01-05T06:01:57.272Z,1021.42
2019-01-05T06:02:57.099Z,1021.41
2019-01-05T06:03:57.075Z,1021.35
2019-01-05T06:04:57.052Z,1021.42
2019-01-05T06:05:57.026Z,1021.43
2019-01-05T06:06:57.003Z,1021.38
2019-01-05T06:07:56.982Z,1021.45
2019-01-05T06:08:56.957Z,1021.48
2019-01-05T06:09:56.939Z,1021.48
2019-01-05T06:10:56.908Z,1021.44
2019-01-05T06:11:56.886Z,1021.49
2019-01-05T06:12:56.865Z,1021.45
2019-01-05T06:13:56.836Z,1021.42
2019-01-05T06:14:56.812Z,1021.44
2019-01-05T06:15:56.794Z,1021.40
2019-01-05T06:16:56.767Z,1021.47
2019-01-05T06:17:56.741Z,1021.47
2019-01-05T06:18:56.718Z,1021.47
2019-01-05T06:19:56.693Z,1021.49
2019-01-05T06:20:56.671Z,1021.52
2019-01-05T06:21:56.645Z,1021.57
2019-01-05T06:22:56.626Z,1021.62
2019-01-05T06:23:56.605Z,1021.58
2019-01-05T06:24:56.574Z,1021.60
2019-01-05T06:25:56.577Z,1021.57
2019-01-05T06:26:56.527Z,1021.62
2019-01-05T06:27:56.501Z,1021.65
2019-01-05T06:28:56.489Z,1021.59
2019-01-05T06:29:56.453Z,1021.62
2019-01-05T06:30:56.434Z,1021.65
2019-01-05T06:31:56.415Z,1021.70
2019-01-05T06:32:56.399Z,1021.65
2019-01-05T06:33:56.360Z,1021.59
2019-01-05T06:34:56.339Z,1021.57
2019-01-05T06:35:56.313Z,1021.61
2019-01-05T06:36:56.290Z,1021.59
2019-01-05T06:37:56.262Z,1021.64
2019-01-05T06:38:56.239Z,1021.60
2019-01-05T06:39:56.217Z,1021.68
2019-01-05T06:40:56.191Z,1021.64
2019-01-05T06:41:56.165Z,1021.58
2019-01-05T06:42:56.144Z,1021.58
2019-01-05T06:43:56.127Z,1021.56
2019-01-05T06:44:56.097Z,1021.59
2019-01-05T06:45:56.070Z,1021.56
2019-01-05T06:46:56.049Z,1021.57
2019-01-05T06:47:56.024Z,1021.58
2019-01-05T06:48:55.999Z,1021.64
2019-01-05T06:49:55.975Z,1021.62
2019-01-05T06:50:55.959Z,1021.63
2019-01-05T06:51:55.927Z,1021.57
2019-01-05T06:52:55.905Z,1021.60
2019-01-05T06:53:55.883Z,1021.57
2019-01-05T06:54:55.855Z,1021.57
2019-01-05T06:55:55.830Z,1021.61
2019-01-05T06:56:55.810Z,1021.58
2019-01-05T06:57:56.326Z,1021.65
2019-01-05T06:58:55.767Z,1021.67
2019-01-05T06:59:55.735Z,1021.66
2019-01-05T07:00:55.718Z,1021.69
2019-01-05T07:01:55.687Z,1021.65
2019-01-05T07:02:55.671Z,1021.71
2019-01-05T07:03:55.638Z,1021.66
2019-01-05T07:04:55.622Z,1021.74
2019-01-05T07:05:55.590Z,1021.72
2019-01-05T07:06:55.566Z,1021.70
2019-01-05T07:07:55.542Z,1021.77
2019-01-05T07:08:55.518Z,1021.72
2019-01-05T07:09:55.494Z,1021.71
2019-01-05T07:10:55.472Z,1021.72
2019-01-05T07:11:55.452Z,1021.73
2019-01-05T07:12:55.423Z,1021.69
2019-01-05T07:13:55.399Z,1021.76
2019-01-05T07:14:55.374Z,1021.78
2019-01-05T07:15:55.351Z,1021.73
2019-01-05T07:16:55.327Z,1021.74
2019-01-05T07:17:55.305Z,1021.80
2019-01-05T07:18:55.281Z,1021.76
2019-01-05T07:19:55.255Z,1021.83
2019-01-05T07:20:55.233Z,1021.80
2019-01-05T07:21:55.208Z,1021.82
2019-01-05T07:22:55.182Z,1021.82
2019-01-05T07:23:55.161Z,1021.84
2019-01-05T07:24:55.138Z,1021.81
2019-01-05T07:25:55.112Z,1021.81
2019-01-05T07:26:55.088Z,1021.80
2019-01-05T07:27:55.069Z,1021.88
2019-01-05T07:28:55.047Z,1021.88
2019-01-05T07:29:55.017Z,1021.78
2019-01-05T07:30:55.000Z,1021.86
2019-01-05T07:31:54.970Z,1021.84
2019-01-05T07:32:54.945Z,1021.85
2019-01-05T07:33:54.928Z,1021.85
2019-01-05T07:34:54.897Z,1021.94
2019-01-05T07:35:54.872Z,1021.91
2019-01-05T07:36:54.850Z,1021.90
2019-01-05T07:37:54.824Z,1021.93
2019-01-05T07:38:54.810Z,1021.93
2019-01-05T07:39:54.777Z,1021.97
2019-01-05T07:40:54.755Z,1021.98
2019-01-05T07:41:54.729Z,1022.04
2019-01-05T07:42:54.704Z,1022.02
2019-01-05T07:43:54.685Z,1022.01
2019-01-05T07:44:54.658Z,1022.09
2019-01-05T07:45:54.633Z,1022.06
2019-01-05T07:46:54.610Z,1022.08
2019-01-05T07:47:54.593Z,1022.04
2019-01-05T07:48:54.573Z,1022.16
2019-01-05T07:49:54.549Z,1022.17
2019-01-05T07:50:54.514Z,1022.16
2019-01-05T07:51:54.490Z,1022.18
2019-01-05T07:52:54.465Z,1022.16
2019-01-05T07:53:54.442Z,1022.15
2019-01-05T07:54:54.417Z,1022.13
2019-01-05T07:55:54.411Z,1022.15
2019-01-05T07:56:54.371Z,1022.22
2019-01-05T07:57:54.360Z,1022.18
2019-01-05T07:58:54.323Z,1022.22
2019-01-05T07:59:54.302Z,1022.22
2019-01-05T08:00:54.276Z,1022.20
2019-01-05T08:01:54.251Z,1022.18
2019-01-05T08:02:54.231Z,1022.21
2019-01-05T08:03:54.216Z,1022.25
2019-01-05T08:04:54.183Z,1022.18
2019-01-05T08:05:54.157Z,1022.20
2019-01-05T08:06:54.177Z,1022.24
2019-01-05T08:07:54.108Z,1022.24
2019-01-05T08:08:54.086Z,1022.22
2019-01-05T08:09:54.060Z,1022.19
2019-01-05T08:10:54.037Z,1022.25
2019-01-05T08:11:54.034Z,1022.26
2019-01-05T08:12:53.989Z,1022.22
2019-01-05T08:13:53.964Z,1022.29
2019-01-05T08:14:53.943Z,1022.28
2019-01-05T08:15:53.923Z,1022.24
2019-01-05T08:16:53.900Z,1022.30
2019-01-05T08:17:53.867Z,1022.22
2019-01-05T08:18:53.848Z,1022.31
2019-01-05T08:19:53.830Z,1022.27
2019-01-05T08:20:53.807Z,1022.26
2019-01-05T08:21:53.799Z,1022.26
2019-01-05T08:22:53.753Z,1022.30
2019-01-05T08:23:53.724Z,1022.24
2019-01-05T08:24:53.699Z,1022.30
2019-01-05T08:25:53.684Z,1022.31
2019-01-05T08:26:53.651Z,1022.39
2019-01-05T08:27:53.631Z,1022.29
2019-01-05T08:28:53.604Z,1022.25
2019-01-05T08:29:53.580Z,1022.31
2019-01-05T08:30:53.554Z,1022.35
2019-01-05T08:31:53.532Z,1022.29
2019-01-05T08:32:53.507Z,1022.28
2019-01-05T08:33:53.493Z,1022.35
2019-01-05T08:34:53.459Z,1022.28
2019-01-05T08:35:53.437Z,1022.31
2019-01-05T08:36:53.413Z,1022.29
2019-01-05T08:37:53.396Z,1022.31
2019-01-05T08:38:53.363Z,1022.34
2019-01-05T08:39:53.347Z,1022.30
2019-01-05T08:40:53.323Z,1022.32
2019-01-05T08:41:53.291Z,1022.33
2019-01-05T08:42:53.268Z,1022.32
2019-01-05T08:43:53.246Z,1022.32
2019-01-05T08:44:53.235Z,1022.30
2019-01-05T08:45:53.208Z,1022.31
2019-01-05T08:46:53.174Z,1022.34
2019-01-05T08:47:53.149Z,1022.30
2019-01-05T08:48:53.125Z,1022.31
2019-01-05T08:49:53.100Z,1022.42
2019-01-05T08:50:53.076Z,1022.36
2019-01-05T08:51:53.053Z,1022.39
2019-01-05T08:52:53.038Z,1022.37
2019-01-05T08:53:53.013Z,1022.41
2019-01-05T08:54:52.980Z,1022.37
2019-01-05T08:55:56.083Z,1022.41
2019-01-05T08:56:52.934Z,1022.39
2019-01-05T08:57:52.919Z,1022.39
2019-01-05T08:58:52.896Z,1022.42
2019-01-05T08:59:52.865Z,1022.45
2019-01-05T09:00:52.840Z,1022.46
2019-01-05T09:01:52.824Z,1022.39
2019-01-05T09:02:52.809Z,1022.45
2019-01-05T09:03:52.769Z,1022.39
2019-01-05T09:04:52.746Z,1022.41
2019-01-05T09:05:52.719Z,1022.41
2019-01-05T09:06:52.697Z,1022.45
2019-01-05T09:07:52.677Z,1022.45
2019-01-05T09:08:52.648Z,1022.48
2019-01-05T09:09:52.649Z,1022.49
2019-01-05T09:10:52.601Z,1022.41
2019-01-05T09:11:52.587Z,1022.47
2019-01-05T09:12:52.557Z,1022.43
2019-01-05T09:13:52.532Z,1022.46
2019-01-05T09:14:52.510Z,1022.47
2019-01-05T09:15:52.486Z,1022.51
2019-01-05T09:16:52.466Z,1022.51
2019-01-05T09:17:52.444Z,1022.54
2019-01-05T09:18:52.421Z,1022.52
2019-01-05T09:19:52.392Z,1022.51
2019-01-05T09:20:52.364Z,1022.49
2019-01-05T09:21:52.340Z,1022.49
2019-01-05T09:22:52.317Z,1022.54
2019-01-05T09:23:52.293Z,1022.55
2019-01-05T09:24:52.270Z,1022.53
2019-01-05T09:25:52.253Z,1022.55
2019-01-05T09:26:52.224Z,1022.56
2019-01-05T09:27:52.200Z,1022.51
2019-01-05T09:28:52.187Z,1022.51
2019-01-05T09:29:52.156Z,1022.53
2019-01-05T09:30:52.127Z,1022.48
2019-01-05T09:31:52.103Z,1022.49
2019-01-05T09:32:52.081Z,1022.49
2019-01-05T09:33:52.060Z,1022.47
2019-01-05T09:34:52.036Z,1022.48
2019-01-05T09:35:52.008Z,1022.52
2019-01-05T09:36:51.986Z,1022.45
2019-01-05T09:37:51.970Z,1022.54
2019-01-05T09:38:51.938Z,1022.49
2019-01-05T09:39:51.914Z,1022.52
2019-01-05T09:40:51.893Z,1022.50
2019-01-05T09:41:51.871Z,1022.50
2019-01-05T09:42:51.859Z,1022.47
2019-01-05T09:43:51.822Z,1022.52
2019-01-05T09:44:51.803Z,1022.48
2019-01-05T09:45:51.780Z,1022.51
2019-01-05T09:46:51.749Z,1022.49
2019-01-05T09:47:51.735Z,1022.48
2019-01-05T09:48:51.702Z,1022.47
2019-01-05T09:49:51.683Z,1022.51
2019-01-05T09:50:51.654Z,1022.48
2019-01-05T09:51:51.640Z,1022.49
2019-01-05T09:52:51.623Z,1022.47
2019-01-05T09:53:51.594Z,1022.49
2019-01-05T09:54:51.563Z,1022.46
2019-01-05T09:55:51.537Z,1022.46
2019-01-05T09:56:51.514Z,1022.49
2019-01-05T09:57:51.489Z,1022.49
2019-01-05T09:58:51.536Z,1022.47
2019-01-05T09:59:51.444Z,1022.52
2019-01-05T10:00:51.436Z,1022.46
2019-01-05T10:01:51.396Z,1022.44
2019-01-05T10:02:51.373Z,1022.44
2019-01-05T10:03:51.351Z,1022.48
2019-01-05T10:04:51.328Z,1022.53
2019-01-05T10:05:51.302Z,1022.43
2019-01-05T10:06:51.285Z,1022.48
2019-01-05T10:07:51.255Z,1022.53
2019-01-05T10:08:51.234Z,1022.54
2019-01-05T10:09:51.208Z,1022.47
2019-01-05T10:10:51.235Z,1022.45
2019-01-05T10:11:51.165Z,1022.47
2019-01-05T10:12:51.139Z,1022.45
2019-01-05T10:13:51.114Z,1022.45
2019-01-05T10:14:51.091Z,1022.43
2019-01-05T10:15:51.211Z,1022.47
2019-01-05T10:16:51.051Z,1022.49
2019-01-05T10:17:51.026Z,1022.47
2019-01-05T10:18:50.998Z,1022.45
2019-01-05T10:19:50.981Z,1022.46
2019-01-05T10:20:50.975Z,1022.50
2019-01-05T10:21:50.931Z,1022.47
2019-01-05T10:22:50.906Z,1022.47
2019-01-05T10:23:50.887Z,1022.47
2019-01-05T10:24:50.860Z,1022.51
2019-01-05T10:25:50.835Z,1022.49
2019-01-05T10:26:50.813Z,1022.54
2019-01-05T10:27:50.789Z,1022.56
2019-01-05T10:28:50.766Z,1022.52
2019-01-05T10:29:50.744Z,1022.51
2019-01-05T10:30:50.727Z,1022.55
2019-01-05T10:31:50.720Z,1022.44
2019-01-05T10:32:50.679Z,1022.53
2019-01-05T10:33:50.653Z,1022.49
2019-01-05T10:34:50.634Z,1022.45
2019-01-05T10:35:51.747Z,1022.47
2019-01-05T10:36:50.580Z,1022.43
2019-01-05T10:37:50.556Z,1022.45
2019-01-05T10:38:50.550Z,1022.45
2019-01-05T10:39:50.513Z,1022.43
2019-01-05T10:40:50.489Z,1022.31
2019-01-05T10:41:50.463Z,1022.34
2019-01-05T10:42:50.455Z,1022.33
2019-01-05T10:43:50.419Z,1022.31
2019-01-05T10:44:50.396Z,1022.34
2019-01-05T10:45:50.371Z,1022.32
2019-01-05T10:46:50.351Z,1022.32
2019-01-05T10:47:50.334Z,1022.32
2019-01-05T10:48:50.349Z,1022.27
2019-01-05T10:49:50.280Z,1022.26
2019-01-05T10:50:50.267Z,1022.19
2019-01-05T10:52:50.211Z,1022.20
2019-01-05T10:53:50.203Z,1022.17
2019-01-05T10:54:50.166Z,1022.10
2019-01-05T10:55:50.169Z,1022.14
2019-01-05T10:56:50.129Z,1022.12
2019-01-05T10:57:50.095Z,1022.11
2019-01-05T10:58:50.073Z,1022.04
2019-01-05T10:59:50.049Z,1022.09
2019-01-05T11:00:50.030Z,1022.13
2019-01-05T11:01:50.008Z,1022.10
2019-01-05T11:02:49.994Z,1022.05
2019-01-05T11:03:49.957Z,1022.08
2019-01-05T11:04:49.934Z,1022.13
2019-01-05T11:05:49.910Z,1022.01
2019-01-05T11:06:49.890Z,1022.01
2019-01-05T11:07:49.866Z,1022.03
2019-01-05T11:08:49.943Z,1022.00
2019-01-05T11:09:49.820Z,1022.00
2019-01-05T11:10:49.810Z,1021.97
2019-01-05T11:11:49.782Z,1021.98
2019-01-05T11:12:49.752Z,1022.04
2019-01-05T11:13:49.728Z,1022.05
2019-01-05T11:14:49.717Z,1022.07
2019-01-05T11:15:49.683Z,1022.02
2019-01-05T11:16:49.666Z,1022.07
2019-01-05T11:17:49.638Z,1022.03
2019-01-05T11:18:49.624Z,1022.04
2019-01-05T11:19:49.609Z,1022.08
2019-01-05T11:20:49.578Z,1021.97
2019-01-05T11:21:49.555Z,1021.99
2019-01-05T11:22:49.532Z,1022.04
2019-01-05T11:23:49.514Z,1022.00
2019-01-05T11:24:49.479Z,1022.03
2019-01-05T11:25:49.464Z,1022.06
2019-01-05T11:26:49.434Z,1022.05
2019-01-05T11:27:49.422Z,1022.06
2019-01-05T11:28:49.389Z,1022.07
2019-01-05T11:29:49.378Z,1022.10
2019-01-05T11:30:49.346Z,1022.05
2019-01-05T11:31:49.322Z,1022.06
2019-01-05T11:32:49.297Z,1022.10
2019-01-05T11:33:49.283Z,1022.11
2019-01-05T11:34:49.269Z,1022.09
2019-01-05T11:35:49.230Z,1022.04
2019-01-05T11:36:49.214Z,1022.09
2019-01-05T11:37:49.195Z,1022.06
2019-01-05T11:38:49.171Z,1022.09
2019-01-05T11:39:49.167Z,1022.07
2019-01-05T11:40:49.129Z,1022.03
2019-01-05T11:41:49.109Z,1022.05
2019-01-05T11:42:49.070Z,1022.00
2019-01-05T11:43:49.058Z,1022.00
2019-01-05T11:44:49.045Z,1021.99
2019-01-05T11:45:49.063Z,1021.92
2019-01-05T11:46:49.001Z,1021.99
2019-01-05T11:47:48.977Z,1022.00
2019-01-05T11:48:48.934Z,1021.97
2019-01-05T11:49:48.916Z,1022.01
2019-01-05T11:50:48.904Z,1021.91
2019-01-05T11:51:48.866Z,1021.92
2019-01-05T11:52:48.844Z,1021.98
2019-01-05T11:53:48.827Z,1021.99
2019-01-05T11:54:48.808Z,1021.94
2019-01-05T11:55:48.773Z,1021.90
2019-01-05T11:56:48.750Z,1021.94
2019-01-05T11:57:48.737Z,1021.91
2019-01-05T11:58:48.714Z,1021.90
2019-01-05T11:59:48.690Z,1021.92
2019-01-05T12:00:48.681Z,1021.88
2019-01-05T12:01:48.645Z,1021.92
2019-01-05T12:02:48.613Z,1021.94
2019-01-05T12:03:48.603Z,1021.95
2019-01-05T12:04:48.574Z,1021.82
2019-01-05T12:05:48.575Z,1021.92